DAL2496 KSEA-KGPI
Flight info
| Callsign | DAL2496 |
|---|---|
| Flight time | 0h 53m |
| Altitude | 27000 |
| Route | MONTN2 SEA ZADON ZELAK ZIRAN ZAXBY OLIBY |
| Aircraft | A319/M-SDE3FGHIRWY/LB1 |
Departure
| Time | 2026-04-19 23:53 |
|---|---|
| Airport | Seattle–Tacoma International Airport (KSEA) |
Arrival
| Time | 2026-04-20 00:46 |
|---|---|
| Airport | Glacier Park International Airport (KGPI) |
| Time | Latitude | Longitude | Altitude | Speed | Heading |
|---|---|---|---|---|---|
| 2026-04-19 23:16 | 47.43842 | -122.29837 | 389 ft | 0 kts | 71° |
| 2026-04-19 23:45 | 47.43842 | -122.29839 | 389 ft | 2 kts | 72° |
| 2026-04-19 23:45 | 47.43834 | -122.29875 | 388 ft | 4 kts | 77° |
| 2026-04-19 23:45 | 47.43830 | -122.29914 | 387 ft | 4 kts | 88° |
| 2026-04-19 23:46 | 47.43832 | -122.29952 | 387 ft | 4 kts | 118° |
| 2026-04-19 23:46 | 47.43844 | -122.29969 | 387 ft | 1 kts | 189° |
| 2026-04-19 23:48 | 47.43834 | -122.29971 | 387 ft | 3 kts | 187° |
| 2026-04-19 23:49 | 47.43807 | -122.29976 | 386 ft | 6 kts | 187° |
| 2026-04-19 23:49 | 47.43768 | -122.30018 | 384 ft | 9 kts | 243° |
| 2026-04-19 23:49 | 47.43756 | -122.30117 | 383 ft | 10 kts | 258° |
| 2026-04-19 23:49 | 47.43739 | -122.30227 | 382 ft | 12 kts | 257° |
| 2026-04-19 23:50 | 47.43724 | -122.30355 | 381 ft | 14 kts | 265° |
| 2026-04-19 23:50 | 47.43723 | -122.30503 | 379 ft | 15 kts | 271° |
| 2026-04-19 23:50 | 47.43673 | -122.30632 | 374 ft | 18 kts | 188° |
| 2026-04-19 23:50 | 47.43563 | -122.30570 | 371 ft | 18 kts | 165° |
| 2026-04-19 23:51 | 47.43434 | -122.30561 | 367 ft | 19 kts | 180° |
| 2026-04-19 23:51 | 47.43305 | -122.30563 | 363 ft | 19 kts | 180° |
| 2026-04-19 23:51 | 47.43204 | -122.30596 | 361 ft | 15 kts | 218° |
| 2026-04-19 23:51 | 47.43174 | -122.30697 | 358 ft | 11 kts | 268° |
| 2026-04-19 23:52 | 47.43183 | -122.30797 | 359 ft | 6 kts | 311° |
| 2026-04-19 23:52 | 47.43211 | -122.30804 | 364 ft | 0 kts | 358° |
| 2026-04-19 23:52 | 47.43212 | -122.30804 | 364 ft | 1 kts | 358° |
| 2026-04-19 23:52 | 47.43346 | -122.30804 | 361 ft | 54 kts | 0° |
| 2026-04-19 23:53 | 47.43963 | -122.30798 | 382 ft | 120 kts | 0° |
| 2026-04-19 23:53 | 47.44975 | -122.30781 | 517 ft | 159 kts | 355° |
| 2026-04-19 23:53 | 47.46070 | -122.30775 | 1255 ft | 156 kts | 358° |
| 2026-04-19 23:53 | 47.47149 | -122.30817 | 2007 ft | 155 kts | 0° |
| 2026-04-19 23:54 | 47.48286 | -122.30884 | 2586 ft | 175 kts | 1° |
| 2026-04-19 23:54 | 47.49563 | -122.30907 | 3124 ft | 197 kts | 2° |
| 2026-04-19 23:54 | 47.51025 | -122.30916 | 3544 ft | 222 kts | 3° |
| 2026-04-19 23:54 | 47.52657 | -122.30921 | 4043 ft | 247 kts | 2° |
| 2026-04-19 23:55 | 47.54456 | -122.30931 | 4578 ft | 269 kts | 0° |
| 2026-04-19 23:55 | 47.56369 | -122.30948 | 5391 ft | 280 kts | 360° |
| 2026-04-19 23:55 | 47.58320 | -122.30594 | 6331 ft | 287 kts | 20° |
| 2026-04-19 23:55 | 47.60030 | -122.29097 | 7238 ft | 290 kts | 44° |
| 2026-04-19 23:56 | 47.61211 | -122.26702 | 8164 ft | 289 kts | 68° |
| 2026-04-19 23:56 | 47.61643 | -122.23814 | 9100 ft | 288 kts | 93° |
| 2026-04-19 23:56 | 47.61402 | -122.20913 | 9979 ft | 291 kts | 102° |
| 2026-04-19 23:56 | 47.61060 | -122.17870 | 10507 ft | 310 kts | 102° |
| 2026-04-19 23:57 | 47.60694 | -122.14603 | 10795 ft | 334 kts | 102° |
| 2026-04-19 23:57 | 47.60304 | -122.11089 | 11113 ft | 355 kts | 102° |
| 2026-04-19 23:57 | 47.59903 | -122.07429 | 11750 ft | 364 kts | 101° |
| 2026-04-19 23:57 | 47.59500 | -122.03705 | 12507 ft | 368 kts | 101° |
| 2026-04-19 23:58 | 47.59095 | -121.99935 | 13283 ft | 373 kts | 101° |
| 2026-04-19 23:58 | 47.58682 | -121.96122 | 14009 ft | 377 kts | 101° |
| 2026-04-19 23:58 | 47.58270 | -121.92324 | 14699 ft | 380 kts | 102° |
| 2026-04-19 23:58 | 47.57845 | -121.88438 | 15384 ft | 384 kts | 102° |
| 2026-04-19 23:59 | 47.57412 | -121.84517 | 16099 ft | 388 kts | 102° |
| 2026-04-19 23:59 | 47.56970 | -121.80560 | 16794 ft | 391 kts | 102° |
| 2026-04-19 23:59 | 47.56523 | -121.76570 | 17480 ft | 395 kts | 102° |
| 2026-04-19 23:59 | 47.56201 | -121.72518 | 18143 ft | 401 kts | 95° |
| 2026-04-20 00:00 | 47.56156 | -121.68367 | 18726 ft | 405 kts | 93° |
| 2026-04-20 00:00 | 47.56111 | -121.64168 | 19271 ft | 409 kts | 93° |
| 2026-04-20 00:00 | 47.56059 | -121.59945 | 19818 ft | 413 kts | 93° |
| 2026-04-20 00:00 | 47.56002 | -121.55733 | 20370 ft | 416 kts | 93° |
| 2026-04-20 00:01 | 47.55943 | -121.51431 | 20927 ft | 420 kts | 93° |
| 2026-04-20 00:01 | 47.55882 | -121.47096 | 21463 ft | 423 kts | 93° |
| 2026-04-20 00:01 | 47.55750 | -121.38321 | 22504 ft | 430 kts | 94° |
| 2026-04-20 00:02 | 47.55679 | -121.33883 | 23016 ft | 433 kts | 94° |
| 2026-04-20 00:02 | 47.55606 | -121.29411 | 23511 ft | 436 kts | 94° |
| 2026-04-20 00:02 | 47.55533 | -121.24908 | 23930 ft | 439 kts | 94° |
| 2026-04-20 00:02 | 47.55460 | -121.20435 | 24333 ft | 442 kts | 94° |
| 2026-04-20 00:03 | 47.55385 | -121.15885 | 24743 ft | 445 kts | 94° |
| 2026-04-20 00:03 | 47.55306 | -121.11292 | 25119 ft | 448 kts | 94° |
| 2026-04-20 00:03 | 47.55225 | -121.06668 | 25513 ft | 451 kts | 94° |
| 2026-04-20 00:03 | 47.55141 | -121.02020 | 25908 ft | 453 kts | 94° |
| 2026-04-20 00:04 | 47.55057 | -120.97344 | 26292 ft | 456 kts | 94° |
| 2026-04-20 00:04 | 47.54971 | -120.92638 | 26665 ft | 459 kts | 94° |
| 2026-04-20 00:04 | 47.54880 | -120.87909 | 26914 ft | 460 kts | 94° |
| 2026-04-20 00:04 | 47.54787 | -120.83213 | 26970 ft | 465 kts | 94° |
| 2026-04-20 00:05 | 47.54691 | -120.78409 | 26969 ft | 468 kts | 94° |
| 2026-04-20 00:05 | 47.54595 | -120.73602 | 26971 ft | 469 kts | 94° |
| 2026-04-20 00:05 | 47.54495 | -120.68778 | 26962 ft | 469 kts | 94° |
| 2026-04-20 00:05 | 47.54390 | -120.63954 | 26951 ft | 469 kts | 95° |
| 2026-04-20 00:06 | 47.54284 | -120.59127 | 26962 ft | 470 kts | 95° |
| 2026-04-20 00:06 | 47.54176 | -120.54298 | 26956 ft | 470 kts | 95° |
| 2026-04-20 00:06 | 47.54066 | -120.49466 | 26955 ft | 470 kts | 95° |
| 2026-04-20 00:06 | 47.53959 | -120.44696 | 26952 ft | 470 kts | 95° |
| 2026-04-20 00:07 | 47.53853 | -120.39864 | 26949 ft | 470 kts | 95° |
| 2026-04-20 00:07 | 47.53766 | -120.35031 | 26944 ft | 470 kts | 94° |
| 2026-04-20 00:07 | 47.53697 | -120.30195 | 26941 ft | 470 kts | 94° |
| 2026-04-20 00:07 | 47.53636 | -120.25363 | 26934 ft | 469 kts | 94° |
| 2026-04-20 00:08 | 47.53574 | -120.20546 | 26931 ft | 469 kts | 94° |
| 2026-04-20 00:08 | 47.53503 | -120.15708 | 26930 ft | 469 kts | 94° |
| 2026-04-20 00:08 | 47.53424 | -120.10880 | 26932 ft | 469 kts | 94° |
| 2026-04-20 00:08 | 47.53342 | -120.06061 | 26933 ft | 470 kts | 94° |
| 2026-04-20 00:09 | 47.53259 | -120.01295 | 26933 ft | 469 kts | 94° |
| 2026-04-20 00:09 | 47.53172 | -119.96467 | 26941 ft | 469 kts | 94° |
| 2026-04-20 00:09 | 47.53086 | -119.91639 | 26935 ft | 469 kts | 95° |
| 2026-04-20 00:09 | 47.52998 | -119.86810 | 26934 ft | 469 kts | 95° |
| 2026-04-20 00:10 | 47.52908 | -119.81981 | 26935 ft | 470 kts | 95° |
| 2026-04-20 00:10 | 47.52816 | -119.77151 | 26934 ft | 470 kts | 95° |
| 2026-04-20 00:10 | 47.52720 | -119.72321 | 26927 ft | 470 kts | 95° |
| 2026-04-20 00:10 | 47.52622 | -119.67502 | 26922 ft | 470 kts | 95° |
| 2026-04-20 00:11 | 47.52519 | -119.62661 | 26920 ft | 470 kts | 95° |
| 2026-04-20 00:11 | 47.52416 | -119.57840 | 26921 ft | 470 kts | 95° |
| 2026-04-20 00:11 | 47.52312 | -119.53070 | 26922 ft | 470 kts | 95° |
| 2026-04-20 00:11 | 47.52208 | -119.48234 | 26926 ft | 470 kts | 95° |
| 2026-04-20 00:12 | 47.52104 | -119.43398 | 26925 ft | 470 kts | 95° |
| 2026-04-20 00:12 | 47.51998 | -119.38563 | 26926 ft | 470 kts | 95° |
| 2026-04-20 00:12 | 47.51885 | -119.33728 | 26929 ft | 470 kts | 95° |
| 2026-04-20 00:12 | 47.51769 | -119.28892 | 26930 ft | 470 kts | 95° |
| 2026-04-20 00:13 | 47.51651 | -119.24056 | 26937 ft | 470 kts | 95° |
| 2026-04-20 00:13 | 47.51530 | -119.19220 | 26939 ft | 470 kts | 95° |
| 2026-04-20 00:13 | 47.51412 | -119.14457 | 26931 ft | 471 kts | 95° |
| 2026-04-20 00:13 | 47.51293 | -119.09617 | 26927 ft | 471 kts | 95° |
| 2026-04-20 00:14 | 47.51174 | -119.04775 | 26938 ft | 471 kts | 95° |
| 2026-04-20 00:14 | 47.51053 | -118.99931 | 26941 ft | 471 kts | 95° |
| 2026-04-20 00:14 | 47.50927 | -118.95087 | 26944 ft | 471 kts | 95° |
| 2026-04-20 00:14 | 47.50793 | -118.90241 | 26945 ft | 472 kts | 95° |
| 2026-04-20 00:15 | 47.50656 | -118.85396 | 26950 ft | 472 kts | 95° |
| 2026-04-20 00:15 | 47.50516 | -118.80550 | 26951 ft | 472 kts | 95° |
| 2026-04-20 00:15 | 47.50378 | -118.75769 | 26952 ft | 472 kts | 95° |
| 2026-04-20 00:15 | 47.50238 | -118.70924 | 26952 ft | 472 kts | 95° |
| 2026-04-20 00:16 | 47.50098 | -118.66077 | 26946 ft | 472 kts | 95° |
| 2026-04-20 00:16 | 47.49958 | -118.61239 | 26948 ft | 472 kts | 95° |
| 2026-04-20 00:16 | 47.49816 | -118.56387 | 26949 ft | 472 kts | 95° |
| 2026-04-20 00:16 | 47.49671 | -118.51534 | 26951 ft | 472 kts | 96° |
| 2026-04-20 00:17 | 47.49522 | -118.46670 | 26954 ft | 473 kts | 96° |
| 2026-04-20 00:17 | 47.49371 | -118.41825 | 26956 ft | 473 kts | 96° |
| 2026-04-20 00:17 | 47.49219 | -118.37034 | 26957 ft | 473 kts | 96° |
| 2026-04-20 00:17 | 47.49064 | -118.32177 | 26958 ft | 473 kts | 96° |
| 2026-04-20 00:18 | 47.48907 | -118.27321 | 26964 ft | 473 kts | 96° |
| 2026-04-20 00:18 | 47.48748 | -118.22465 | 26964 ft | 473 kts | 96° |
| 2026-04-20 00:18 | 47.48588 | -118.17607 | 26954 ft | 473 kts | 96° |
| 2026-04-20 00:18 | 47.48429 | -118.12746 | 26954 ft | 474 kts | 96° |
| 2026-04-20 00:19 | 47.48266 | -118.07883 | 26960 ft | 474 kts | 96° |
| 2026-04-20 00:19 | 47.48100 | -118.03017 | 26958 ft | 474 kts | 96° |
| 2026-04-20 00:19 | 47.47929 | -117.98161 | 26959 ft | 474 kts | 96° |
| 2026-04-20 00:19 | 47.47755 | -117.93346 | 26960 ft | 474 kts | 96° |
| 2026-04-20 00:20 | 47.47577 | -117.88487 | 26962 ft | 474 kts | 96° |
| 2026-04-20 00:20 | 47.47401 | -117.83615 | 26964 ft | 475 kts | 96° |
| 2026-04-20 00:20 | 47.47224 | -117.78744 | 26964 ft | 475 kts | 96° |
| 2026-04-20 00:20 | 47.47043 | -117.73869 | 26961 ft | 475 kts | 96° |
| 2026-04-20 00:21 | 47.46858 | -117.69009 | 26959 ft | 475 kts | 96° |
| 2026-04-20 00:21 | 47.46815 | -117.64121 | 26957 ft | 478 kts | 89° |
| 2026-04-20 00:21 | 47.47259 | -117.59242 | 26959 ft | 481 kts | 80° |
| 2026-04-20 00:21 | 47.48186 | -117.54549 | 26965 ft | 484 kts | 71° |
| 2026-04-20 00:22 | 47.49348 | -117.49882 | 26970 ft | 484 kts | 71° |
| 2026-04-20 00:22 | 47.50505 | -117.45210 | 26970 ft | 484 kts | 72° |
| 2026-04-20 00:22 | 47.51656 | -117.40531 | 26970 ft | 484 kts | 72° |
| 2026-04-20 00:22 | 47.52803 | -117.35848 | 26973 ft | 484 kts | 72° |
| 2026-04-20 00:23 | 47.53949 | -117.31160 | 26961 ft | 484 kts | 72° |
| 2026-04-20 00:23 | 47.55090 | -117.26476 | 26961 ft | 485 kts | 72° |
| 2026-04-20 00:23 | 47.56217 | -117.21843 | 26963 ft | 485 kts | 72° |
| 2026-04-20 00:23 | 47.57361 | -117.17146 | 26980 ft | 485 kts | 72° |
| 2026-04-20 00:24 | 47.58504 | -117.12443 | 26978 ft | 485 kts | 72° |
| 2026-04-20 00:24 | 47.59643 | -117.07738 | 26989 ft | 485 kts | 72° |
| 2026-04-20 00:24 | 47.60778 | -117.03030 | 26987 ft | 485 kts | 72° |
| 2026-04-20 00:24 | 47.61912 | -116.98317 | 26985 ft | 485 kts | 72° |
| 2026-04-20 00:25 | 47.63047 | -116.93603 | 26980 ft | 486 kts | 72° |
| 2026-04-20 00:25 | 47.64179 | -116.88897 | 26972 ft | 486 kts | 72° |
| 2026-04-20 00:25 | 47.65315 | -116.84165 | 26970 ft | 486 kts | 72° |
| 2026-04-20 00:25 | 47.66444 | -116.79448 | 26972 ft | 486 kts | 72° |
| 2026-04-20 00:26 | 47.67557 | -116.74778 | 26975 ft | 487 kts | 72° |
| 2026-04-20 00:26 | 47.68681 | -116.70039 | 26979 ft | 487 kts | 72° |
| 2026-04-20 00:26 | 47.69806 | -116.65299 | 26979 ft | 487 kts | 72° |
| 2026-04-20 00:26 | 47.70933 | -116.60553 | 26750 ft | 487 kts | 72° |
| 2026-04-20 00:27 | 47.72062 | -116.55805 | 26492 ft | 488 kts | 72° |
| 2026-04-20 00:27 | 47.73189 | -116.51048 | 26232 ft | 488 kts | 72° |
| 2026-04-20 00:27 | 47.74314 | -116.46281 | 25983 ft | 489 kts | 72° |
| 2026-04-20 00:27 | 47.75436 | -116.41505 | 25736 ft | 490 kts | 72° |
| 2026-04-20 00:28 | 47.76553 | -116.36731 | 25499 ft | 490 kts | 72° |
| 2026-04-20 00:28 | 47.77657 | -116.31993 | 25238 ft | 491 kts | 72° |
| 2026-04-20 00:28 | 47.78768 | -116.27204 | 25008 ft | 491 kts | 72° |
| 2026-04-20 00:28 | 47.79884 | -116.22399 | 24769 ft | 492 kts | 72° |
| 2026-04-20 00:29 | 47.81004 | -116.17587 | 24521 ft | 492 kts | 72° |
| 2026-04-20 00:29 | 47.82124 | -116.12765 | 24282 ft | 494 kts | 72° |
| 2026-04-20 00:29 | 47.83244 | -116.07935 | 24052 ft | 494 kts | 72° |
| 2026-04-20 00:29 | 47.84363 | -116.03099 | 23820 ft | 494 kts | 73° |
| 2026-04-20 00:30 | 47.85465 | -115.98320 | 23601 ft | 495 kts | 73° |
| 2026-04-20 00:30 | 47.86578 | -115.93476 | 23341 ft | 494 kts | 73° |
| 2026-04-20 00:30 | 47.87683 | -115.88656 | 23065 ft | 492 kts | 73° |
| 2026-04-20 00:30 | 47.88784 | -115.83843 | 22776 ft | 489 kts | 73° |
| 2026-04-20 00:31 | 47.89878 | -115.79048 | 22507 ft | 487 kts | 73° |
| 2026-04-20 00:31 | 47.90963 | -115.74286 | 22243 ft | 485 kts | 73° |
| 2026-04-20 00:31 | 47.92045 | -115.69529 | 21979 ft | 484 kts | 73° |
| 2026-04-20 00:31 | 47.93119 | -115.64787 | 21711 ft | 482 kts | 73° |
| 2026-04-20 00:32 | 47.94186 | -115.60062 | 21465 ft | 480 kts | 73° |
| 2026-04-20 00:32 | 47.95235 | -115.55416 | 21220 ft | 478 kts | 73° |
| 2026-04-20 00:32 | 47.96294 | -115.50726 | 20961 ft | 476 kts | 73° |
| 2026-04-20 00:32 | 47.97344 | -115.46066 | 20219 ft | 473 kts | 73° |
| 2026-04-20 00:33 | 47.98389 | -115.41410 | 19216 ft | 473 kts | 73° |
| 2026-04-20 00:33 | 47.99427 | -115.36766 | 18293 ft | 471 kts | 72° |
| 2026-04-20 00:33 | 48.00459 | -115.32137 | 17354 ft | 468 kts | 73° |
| 2026-04-20 00:33 | 48.01477 | -115.27562 | 16462 ft | 463 kts | 72° |
| 2026-04-20 00:34 | 48.02480 | -115.23051 | 15646 ft | 457 kts | 72° |
| 2026-04-20 00:34 | 48.03471 | -115.18557 | 14955 ft | 450 kts | 73° |
| 2026-04-20 00:34 | 48.04127 | -115.14079 | 14104 ft | 447 kts | 84° |
| 2026-04-20 00:34 | 48.04247 | -115.09487 | 13307 ft | 441 kts | 94° |
| 2026-04-20 00:35 | 48.03975 | -115.04988 | 12988 ft | 426 kts | 97° |
| 2026-04-20 00:35 | 48.03717 | -115.00672 | 12853 ft | 408 kts | 96° |
| 2026-04-20 00:35 | 48.03486 | -114.96540 | 12722 ft | 390 kts | 97° |
| 2026-04-20 00:35 | 48.03270 | -114.92584 | 12591 ft | 373 kts | 96° |
| 2026-04-20 00:36 | 48.03063 | -114.88829 | 12464 ft | 352 kts | 96° |
| 2026-04-20 00:36 | 48.02860 | -114.85281 | 12335 ft | 334 kts | 97° |
| 2026-04-20 00:36 | 48.02661 | -114.81915 | 12212 ft | 317 kts | 97° |
| 2026-04-20 00:36 | 48.02472 | -114.78749 | 12076 ft | 304 kts | 97° |
| 2026-04-20 00:37 | 48.02289 | -114.75670 | 11945 ft | 291 kts | 97° |
| 2026-04-20 00:37 | 48.02112 | -114.72729 | 11818 ft | 278 kts | 97° |
| 2026-04-20 00:37 | 48.01939 | -114.69905 | 11641 ft | 269 kts | 97° |
| 2026-04-20 00:37 | 48.01768 | -114.67142 | 11315 ft | 265 kts | 97° |
| 2026-04-20 00:38 | 48.01597 | -114.64412 | 10997 ft | 262 kts | 97° |
| 2026-04-20 00:38 | 48.01432 | -114.61750 | 10790 ft | 254 kts | 97° |
| 2026-04-20 00:38 | 48.01421 | -114.59137 | 10444 ft | 252 kts | 81° |
| 2026-04-20 00:38 | 48.01957 | -114.56717 | 10131 ft | 248 kts | 61° |
| 2026-04-20 00:39 | 48.02995 | -114.54695 | 9815 ft | 245 kts | 40° |
| 2026-04-20 00:39 | 48.04362 | -114.53160 | 9230 ft | 252 kts | 31° |
| 2026-04-20 00:39 | 48.05831 | -114.51674 | 8642 ft | 252 kts | 32° |
| 2026-04-20 00:39 | 48.07239 | -114.50231 | 8282 ft | 239 kts | 32° |
| 2026-04-20 00:40 | 48.08577 | -114.48851 | 7980 ft | 230 kts | 32° |
| 2026-04-20 00:40 | 48.09862 | -114.47525 | 7674 ft | 220 kts | 32° |
| 2026-04-20 00:40 | 48.11095 | -114.46252 | 7391 ft | 211 kts | 33° |
| 2026-04-20 00:40 | 48.12279 | -114.45029 | 7124 ft | 203 kts | 33° |
| 2026-04-20 00:41 | 48.13392 | -114.43879 | 6886 ft | 189 kts | 33° |
| 2026-04-20 00:41 | 48.14412 | -114.42823 | 6653 ft | 170 kts | 33° |
| 2026-04-20 00:41 | 48.15346 | -114.41855 | 6446 ft | 159 kts | 33° |
| 2026-04-20 00:41 | 48.16246 | -114.40925 | 6247 ft | 156 kts | 33° |
| 2026-04-20 00:42 | 48.17133 | -114.40007 | 6039 ft | 155 kts | 33° |
| 2026-04-20 00:42 | 48.18021 | -114.39088 | 5834 ft | 155 kts | 34° |
| 2026-04-20 00:42 | 48.18902 | -114.38175 | 5624 ft | 154 kts | 34° |
| 2026-04-20 00:42 | 48.19777 | -114.37268 | 5407 ft | 153 kts | 34° |
| 2026-04-20 00:43 | 48.20639 | -114.36374 | 5211 ft | 152 kts | 34° |
| 2026-04-20 00:43 | 48.21506 | -114.35475 | 5009 ft | 151 kts | 35° |
| 2026-04-20 00:43 | 48.22368 | -114.34580 | 4810 ft | 150 kts | 36° |
| 2026-04-20 00:43 | 48.23221 | -114.33695 | 4595 ft | 148 kts | 35° |
| 2026-04-20 00:44 | 48.24061 | -114.32822 | 4365 ft | 146 kts | 34° |
| 2026-04-20 00:44 | 48.24887 | -114.31963 | 4169 ft | 143 kts | 34° |
| 2026-04-20 00:44 | 48.25710 | -114.31108 | 3990 ft | 145 kts | 33° |
| 2026-04-20 00:44 | 48.26529 | -114.30256 | 3814 ft | 145 kts | 33° |
| 2026-04-20 00:45 | 48.27380 | -114.29370 | 3626 ft | 152 kts | 34° |
| 2026-04-20 00:45 | 48.28247 | -114.28467 | 3411 ft | 150 kts | 35° |
| 2026-04-20 00:45 | 48.29097 | -114.27591 | 3199 ft | 150 kts | 36° |
| 2026-04-20 00:45 | 48.29952 | -114.26699 | 3009 ft | 147 kts | 37° |
| 2026-04-20 00:46 | 48.30708 | -114.25899 | 2979 ft | 113 kts | 35° |
| 2026-04-20 00:46 | 48.31211 | -114.25376 | 2978 ft | 63 kts | 34° |
| 2026-04-20 00:46 | 48.31457 | -114.25119 | 2977 ft | 35 kts | 35° |
| 2026-04-20 00:46 | 48.31655 | -114.24914 | 2977 ft | 33 kts | 34° |
| 2026-04-20 00:47 | 48.31768 | -114.24776 | 2978 ft | 12 kts | 71° |
| 2026-04-20 00:47 | 48.31734 | -114.24670 | 2978 ft | 12 kts | 135° |
| 2026-04-20 00:47 | 48.31668 | -114.24693 | 2978 ft | 11 kts | 213° |
| 2026-04-20 00:47 | 48.31605 | -114.24758 | 2978 ft | 11 kts | 214° |
| 2026-04-20 00:48 | 48.31538 | -114.24828 | 2977 ft | 12 kts | 214° |
| 2026-04-20 00:48 | 48.31465 | -114.24905 | 2977 ft | 13 kts | 215° |
| 2026-04-20 00:48 | 48.31386 | -114.24985 | 2978 ft | 14 kts | 214° |
| 2026-04-20 00:48 | 48.31304 | -114.25072 | 2977 ft | 15 kts | 215° |
| 2026-04-20 00:49 | 48.31217 | -114.25163 | 2978 ft | 15 kts | 215° |
| 2026-04-20 00:49 | 48.31127 | -114.25258 | 2978 ft | 16 kts | 215° |
| 2026-04-20 00:49 | 48.31033 | -114.25356 | 2978 ft | 17 kts | 214° |
| 2026-04-20 00:49 | 48.30934 | -114.25457 | 2978 ft | 16 kts | 214° |
| 2026-04-20 00:50 | 48.30858 | -114.25533 | 2978 ft | 12 kts | 213° |
| 2026-04-20 00:50 | 48.30799 | -114.25492 | 2978 ft | 10 kts | 130° |
| 2026-04-20 00:50 | 48.30755 | -114.25448 | 2978 ft | 4 kts | 129° |
| 2026-04-20 00:50 | 48.30745 | -114.25403 | 2978 ft | 5 kts | 105° |
| 2026-04-20 00:51 | 48.30741 | -114.25382 | 2978 ft | 2 kts | 105° |
| 2026-04-20 00:51 | 48.30741 | -114.25380 | 2978 ft | 0 kts | 105° |
| 2026-04-20 00:53 | 48.30746 | -114.25407 | 2978 ft | 0 kts | 106° |